Time;durP1;ratioP1;P1;durP2;ratioP2;P2;SDS_P1;SDS_P2;PMS_P1;PMS_P2;Temp;Humidity;BMP_temperature;BMP_pressure;BME280_temperature;BME280_humidity;BME280_pressure;Samples;Min_cycle;Max_cycle;Signal;HPM_P1;HPM_P2
2021/04/09 00:01:05;;;;;;;80.87;32.23;;;-0.70;99.90;;;;;;4407947;28;659893;-71
2021/04/09 00:03:53;;;;;;;101.83;35.80;;;-0.70;99.90;;;;;;4411317;28;658839;-70
2021/04/09 00:06:41;;;;;;;84.23;32.57;;;-0.80;99.90;;;;;;4428862;28;659911;-71
2021/04/09 00:09:28;;;;;;;96.07;35.13;;;-0.90;99.90;;;;;;4409973;28;658481;-70
2021/04/09 00:12:17;;;;;;;93.55;33.10;;;-0.90;99.90;;;;;;4434151;28;659882;-70
2021/04/09 00:15:06;;;;;;;91.37;33.67;;;-0.90;99.90;;;;;;4411628;28;659943;-70
2021/04/09 00:17:54;;;;;;;93.10;34.63;;;-1.00;99.90;;;;;;4397125;28;658750;-70
2021/04/09 00:20:43;;;;;;;87.23;31.83;;;-1.10;99.90;;;;;;4430075;28;658699;-70
2021/04/09 00:23:31;;;;;;;89.67;32.27;;;-1.10;99.90;;;;;;4411321;28;659545;-71
2021/04/09 00:26:18;;;;;;;94.50;32.97;;;-1.20;99.90;;;;;;4409599;28;658676;-70
2021/04/09 00:29:06;;;;;;;85.97;32.30;;;-1.20;99.90;;;;;;4433607;28;659575;-71
2021/04/09 00:31:54;;;;;;;85.43;31.47;;;-1.30;99.90;;;;;;4411548;28;658839;-71
2021/04/09 00:34:43;;;;;;;91.00;33.17;;;-1.30;99.90;;;;;;4430062;28;659046;-70
2021/04/09 00:37:32;;;;;;;84.50;31.77;;;-1.30;99.90;;;;;;4406987;28;659569;-71
2021/04/09 00:40:21;;;;;;;88.73;32.77;;;-1.40;99.90;;;;;;4407191;28;659312;-70
2021/04/09 00:43:08;;;;;;;92.13;32.67;;;-1.40;99.90;;;;;;4410859;28;658647;-70
2021/04/09 00:45:56;;;;;;;95.03;32.67;;;-1.50;99.90;;;;;;4429882;28;659545;-71
2021/04/09 00:48:43;;;;;;;90.97;33.20;;;-1.50;99.90;;;;;;4411585;28;659269;-70
2021/04/09 00:51:32;;;;;;;85.53;32.37;;;-1.60;99.90;;;;;;4430170;28;658716;-71
2021/04/09 00:54:20;;;;;;;85.70;31.50;;;-1.60;99.90;;;;;;4410962;28;658812;-71
2021/04/09 00:57:08;;;;;;;88.17;30.70;;;-1.60;99.90;;;;;;4417510;28;658888;-69
2021/04/09 00:59:55;;;;;;;79.90;29.60;;;-1.70;99.90;;;;;;4429210;28;659149;-71
2021/04/09 01:02:43;;;;;;;81.13;30.57;;;-1.80;99.90;;;;;;4410528;28;658887;-69
2021/04/09 01:05:31;;;;;;;79.40;30.58;;;-1.70;99.90;;;;;;4429850;28;658747;-71
2021/04/09 01:08:20;;;;;;;78.70;29.80;;;-1.80;99.90;;;;;;4406662;28;658836;-70
2021/04/09 01:11:08;;;;;;;83.68;30.80;;;-1.80;99.90;;;;;;4414520;28;658459;-69
2021/04/09 01:13:56;;;;;;;88.37;31.57;;;-1.80;99.90;;;;;;4433492;28;659220;-71
2021/04/09 01:16:46;;;;;;;81.27;28.83;;;-1.90;99.90;;;;;;4410184;28;658301;-71
2021/04/09 01:20:11;;;;;;;80.80;31.13;;;-1.90;99.90;;;;;;4409363;28;658637;-70
2021/04/09 01:23:25;;;;;;;84.70;30.47;;;-2.00;99.90;;;;;;4383563;28;659594;-70
2021/04/09 01:26:39;;;;;;;92.07;31.17;;;-2.00;99.90;;;;;;4400514;28;658433;-69
2021/04/09 01:29:53;;;;;;;83.40;30.33;;;-2.10;99.90;;;;;;4405853;28;659531;-70
2021/04/09 01:32:42;;;;;;;78.07;28.95;;;-2.20;99.90;;;;;;4399410;28;659026;-70
2021/04/09 01:35:29;;;;;;;76.83;28.90;;;-2.20;99.90;;;;;;4406138;28;659697;-70
2021/04/09 01:38:17;;;;;;;82.30;29.93;;;-2.20;99.90;;;;;;4428825;28;658788;-70
2021/04/09 01:41:05;;;;;;;78.87;29.20;;;-2.20;99.90;;;;;;4410107;28;658771;-70
2021/04/09 01:43:52;;;;;;;79.18;28.30;;;-2.20;99.90;;;;;;4410012;28;658411;-69
2021/04/09 01:46:41;;;;;;;80.53;29.70;;;-2.30;99.90;;;;;;4432715;28;658558;-70
2021/04/09 01:49:30;;;;;;;73.53;27.17;;;-2.30;99.90;;;;;;4409825;28;658593;-70
2021/04/09 01:52:17;;;;;;;79.47;28.33;;;-2.30;99.90;;;;;;4425937;28;658246;-69
2021/04/09 01:55:06;;;;;;;66.00;26.47;;;-2.30;99.90;;;;;;4432454;28;658943;-71
2021/04/09 01:57:53;;;;;;;82.78;28.50;;;-2.40;99.90;;;;;;4410579;28;659382;-70
2021/04/09 02:00:41;;;;;;;85.50;28.43;;;-2.40;99.90;;;;;;4428989;28;658967;-70
2021/04/09 02:03:28;;;;;;;76.27;29.17;;;-2.40;99.90;;;;;;4409128;28;658777;-69
2021/04/09 02:06:16;;;;;;;68.00;26.50;;;-2.50;99.90;;;;;;4432720;28;658675;-71
2021/04/09 02:09:04;;;;;;;79.90;27.63;;;-2.50;99.90;;;;;;4405669;28;658705;-71
2021/04/09 02:11:51;;;;;;;92.27;32.10;;;-2.50;99.90;;;;;;4430839;28;658538;-70
2021/04/09 02:14:39;;;;;;;80.63;29.42;;;-2.50;99.90;;;;;;4409062;28;658288;-70
2021/04/09 02:17:26;;;;;;;63.77;25.47;;;-2.50;99.90;;;;;;4427973;28;659111;-70
2021/04/09 02:20:14;;;;;;;56.23;21.40;;;-2.60;99.90;;;;;;4409847;28;658620;-71
2021/04/09 02:23:03;;;;;;;60.60;21.87;;;-2.60;99.90;;;;;;4428649;28;659213;-70
2021/04/09 02:25:50;;;;;;;56.73;21.90;;;-2.60;99.90;;;;;;4405519;28;659479;-71
2021/04/09 02:28:37;;;;;;;61.50;22.25;;;-2.70;99.90;;;;;;4414266;28;658651;-69
2021/04/09 02:31:24;;;;;;;58.63;21.25;;;-2.70;99.90;;;;;;4431747;28;658703;-70
2021/04/09 02:34:12;;;;;;;58.17;20.93;;;-2.70;99.90;;;;;;4428196;28;658748;-70
2021/04/09 02:36:59;;;;;;;53.50;20.27;;;-2.80;99.90;;;;;;4409559;28;658988;-71
2021/04/09 02:39:47;;;;;;;51.73;19.00;;;-2.80;99.90;;;;;;4422242;28;659256;-70
2021/04/09 02:42:35;;;;;;;45.13;18.25;;;-2.80;99.90;;;;;;4409528;28;659727;-70
2021/04/09 02:45:23;;;;;;;50.57;19.57;;;-2.90;99.90;;;;;;4427783;28;658680;-70
2021/04/09 02:48:11;;;;;;;49.83;20.63;;;-2.90;99.90;;;;;;4409104;28;659701;-70
2021/04/09 02:50:58;;;;;;;46.00;18.47;;;-2.90;99.90;;;;;;4409113;28;658632;-70
2021/04/09 02:53:45;;;;;;;44.37;16.80;;;-2.90;99.90;;;;;;4428466;28;660498;-70
2021/04/09 02:56:34;;;;;;;45.65;18.25;;;-2.90;99.90;;;;;;4413147;28;658462;-69
2021/04/09 02:59:24;;;;;;;47.90;19.60;;;-2.90;99.90;;;;;;4428134;28;659496;-70
2021/04/09 03:02:12;;;;;;;50.33;17.43;;;-3.00;99.90;;;;;;4409511;28;658929;-71
2021/04/09 03:04:59;;;;;;;44.47;17.45;;;-3.00;99.90;;;;;;4409540;28;659319;-70
2021/04/09 03:07:47;;;;;;;46.93;17.50;;;-3.00;99.90;;;;;;4427927;28;658887;-70
2021/04/09 03:10:34;;;;;;;48.33;16.80;;;-3.00;99.90;;;;;;4404846;28;659783;-70
2021/04/09 03:13:22;;;;;;;43.40;17.87;;;-3.00;99.90;;;;;;4430720;28;659045;-70
2021/04/09 03:16:09;;;;;;;45.03;16.60;;;-3.00;99.90;;;;;;4405065;28;658528;-70
2021/04/09 03:18:57;;;;;;;44.73;16.43;;;-3.10;99.90;;;;;;4426117;28;659071;-70
2021/04/09 03:21:44;;;;;;;47.10;16.73;;;-3.10;99.90;;;;;;4404882;28;659947;-70
2021/04/09 03:24:31;;;;;;;45.17;16.87;;;-3.20;99.90;;;;;;4427754;28;658494;-71
2021/04/09 03:27:19;;;;;;;39.00;15.77;;;-3.10;99.90;;;;;;4406737;28;658553;-71
2021/04/09 03:30:08;;;;;;;48.07;16.03;;;-3.10;99.90;;;;;;4427723;28;659119;-71
2021/04/09 03:32:55;;;;;;;37.60;15.33;;;-3.20;99.90;;;;;;4404774;28;659366;-70
2021/04/09 03:35:42;;;;;;;38.45;15.93;;;-3.10;99.90;;;;;;4408275;28;658424;-69
2021/04/09 03:38:30;;;;;;;38.10;15.82;;;-3.20;99.90;;;;;;4432518;28;658446;-71
2021/04/09 03:41:17;;;;;;;41.70;15.57;;;-3.20;99.90;;;;;;4425918;28;658575;-69
2021/04/09 03:44:05;;;;;;;42.60;15.88;;;-3.20;99.90;;;;;;4433977;28;658579;-70
2021/04/09 03:46:54;;;;;;;38.28;16.05;;;-3.30;99.90;;;;;;4416884;28;658613;-69
2021/04/09 03:49:41;;;;;;;38.17;14.07;;;-3.20;99.90;;;;;;4431236;28;659175;-70
2021/04/09 03:52:28;;;;;;;33.33;14.03;;;-3.20;99.90;;;;;;4411866;28;658422;-70
2021/04/09 03:55:15;;;;;;;35.43;13.97;;;-3.20;99.90;;;;;;4431964;28;659246;-70
2021/04/09 03:58:03;;;;;;;36.33;13.53;;;-3.20;99.90;;;;;;4412177;28;658978;-71
2021/04/09 04:00:50;;;;;;;40.27;14.90;;;-3.20;99.90;;;;;;4434823;28;659892;-72
2021/04/09 04:03:38;;;;;;;37.93;13.97;;;-3.20;99.90;;;;;;4418725;28;658872;-70
2021/04/09 04:06:26;;;;;;;36.97;14.40;;;-3.20;99.90;;;;;;4430382;28;659567;-72
2021/04/09 04:09:13;;;;;;;35.40;14.20;;;-3.30;99.90;;;;;;4410978;28;659103;-71
2021/04/09 04:12:00;;;;;;;30.70;12.73;;;-3.20;99.90;;;;;;4433863;28;659314;-71
2021/04/09 04:14:47;;;;;;;31.33;12.10;;;-3.20;99.90;;;;;;4410879;28;658512;-70
2021/04/09 04:17:35;;;;;;;26.80;11.23;;;-3.20;99.90;;;;;;4430316;28;659539;-70
2021/04/09 04:20:24;;;;;;;33.80;13.97;;;-3.20;99.90;;;;;;4428584;28;658605;-68
2021/04/09 04:23:11;;;;;;;34.90;13.47;;;-3.20;99.90;;;;;;4430150;28;659401;-69
2021/04/09 04:25:58;;;;;;;32.63;12.53;;;-3.10;99.90;;;;;;4411475;28;659289;-69
2021/04/09 04:28:45;;;;;;;30.77;12.50;;;-3.10;99.90;;;;;;4432886;28;659402;-69
2021/04/09 04:31:33;;;;;;;33.50;12.47;;;-3.00;99.90;;;;;;4411644;28;658928;-67
2021/04/09 04:34:20;;;;;;;31.83;11.97;;;-3.00;99.90;;;;;;4430012;28;659557;-69
2021/04/09 04:37:08;;;;;;;31.95;12.15;;;-2.90;99.90;;;;;;4415028;28;658944;-68
2021/04/09 04:39:56;;;;;;;29.60;12.00;;;-2.90;99.90;;;;;;4429890;28;659423;-70
2021/04/09 04:42:43;;;;;;;32.60;13.03;;;-2.80;99.90;;;;;;4410951;28;658511;-69
2021/04/09 04:45:30;;;;;;;28.67;12.17;;;-2.80;99.90;;;;;;4429767;28;659407;-69
2021/04/09 04:48:18;;;;;;;36.07;13.17;;;-2.70;99.90;;;;;;4410865;28;658839;-69
2021/04/09 04:51:06;;;;;;;36.70;14.07;;;-2.60;99.90;;;;;;4429571;28;658919;-69
2021/04/09 04:53:54;;;;;;;44.10;14.00;;;-2.50;99.90;;;;;;4410608;28;659067;-69
2021/04/09 04:56:41;;;;;;;33.57;11.63;;;-2.40;99.90;;;;;;4429126;28;658873;-69
2021/04/09 04:59:28;;;;;;;30.50;11.80;;;-2.30;99.90;;;;;;4410496;28;658656;-69
2021/04/09 05:02:16;;;;;;;30.57;12.53;;;-2.20;99.90;;;;;;4429902;28;660235;-70
2021/04/09 05:05:05;;;;;;;41.27;14.23;;;-2.10;99.90;;;;;;4410761;28;658832;-70
2021/04/09 05:07:53;;;;;;;30.90;12.80;;;-2.00;99.90;;;;;;4427290;28;658773;-68
2021/04/09 05:10:41;;;;;;;57.40;18.60;;;-1.90;99.90;;;;;;4429452;28;659829;-70
2021/04/09 05:13:28;;;;;;;65.63;18.70;;;-1.80;99.90;;;;;;4410221;28;659256;-69
2021/04/09 05:16:15;;;;;;;45.78;16.42;;;-1.70;99.90;;;;;;4430214;28;659609;-70
2021/04/09 05:19:03;;;;;;;44.13;14.13;;;-1.50;99.90;;;;;;4410415;28;658714;-69
2021/04/09 05:21:50;;;;;;;40.20;14.43;;;-1.40;99.90;;;;;;4433290;28;659216;-70
2021/04/09 05:24:38;;;;;;;48.28;16.10;;;-1.30;99.90;;;;;;4415198;28;658817;-68
2021/04/09 05:27:26;;;;;;;47.00;16.27;;;-1.10;99.90;;;;;;4429151;28;659825;-69
2021/04/09 05:30:14;;;;;;;42.80;14.97;;;-0.90;99.90;;;;;;4410597;28;658803;-70
2021/04/09 05:33:02;;;;;;;40.13;14.53;;;-0.70;99.90;;;;;;4431693;28;658732;-70
2021/04/09 05:35:49;;;;;;;35.73;13.80;;;-0.60;99.90;;;;;;4410326;28;658924;-69
2021/04/09 05:38:36;;;;;;;31.53;13.40;;;-0.50;99.90;;;;;;4429070;28;658209;-70
2021/04/09 05:41:23;;;;;;;32.47;12.90;;;-0.30;99.90;;;;;;4409964;28;658990;-70
2021/04/09 05:44:12;;;;;;;35.83;13.63;;;-0.20;99.90;;;;;;4428075;28;658806;-70
2021/04/09 05:46:59;;;;;;;37.93;13.87;;;0.00;99.90;;;;;;4410334;28;658867;-70
2021/04/09 05:49:46;;;;;;;37.23;12.97;;;0.20;99.90;;;;;;4433399;28;657787;-70
2021/04/09 05:52:33;;;;;;;35.67;13.25;;;0.30;99.90;;;;;;4411028;28;657705;-70
2021/04/09 05:55:21;;;;;;;42.30;15.00;;;0.50;99.90;;;;;;4429376;28;657976;-70
2021/04/09 05:58:08;;;;;;;33.87;13.87;;;0.60;99.90;;;;;;4411139;28;657715;-69
2021/04/09 06:00:56;;;;;;;37.30;13.97;;;0.70;99.90;;;;;;4430254;28;657887;-70
2021/04/09 06:03:44;;;;;;;42.13;15.27;;;0.90;99.90;;;;;;4407009;28;658444;-69
2021/04/09 06:06:31;;;;;;;37.33;14.30;;;1.00;99.90;;;;;;4428218;28;657488;-70
2021/04/09 06:09:19;;;;;;;41.20;15.47;;;1.10;99.90;;;;;;4411978;28;657362;-70
2021/04/09 06:12:07;;;;;;;42.93;15.23;;;1.20;99.90;;;;;;4429921;28;657918;-70
2021/04/09 06:14:54;;;;;;;38.73;14.63;;;1.40;99.90;;;;;;4411017;28;657301;-70
2021/04/09 06:17:43;;;;;;;51.10;16.83;;;1.50;99.90;;;;;;4423149;28;657774;-70
2021/04/09 06:20:31;;;;;;;41.23;15.03;;;1.60;99.90;;;;;;4406707;28;658845;-70
2021/04/09 06:23:18;;;;;;;37.80;15.53;;;1.70;99.90;;;;;;4408185;28;657357;-69
2021/04/09 06:26:06;;;;;;;37.83;15.50;;;1.90;99.90;;;;;;4429345;28;658507;-70
2021/04/09 06:28:55;;;;;;;42.80;14.93;;;2.00;99.90;;;;;;4409777;28;657924;-70
2021/04/09 06:31:42;;;;;;;31.93;12.67;;;2.20;99.90;;;;;;4422702;28;657580;-68
2021/04/09 06:34:31;;;;;;;39.67;14.10;;;2.30;99.90;;;;;;4430373;28;658397;-70
2021/04/09 06:37:19;;;;;;;35.23;13.80;;;2.40;99.90;;;;;;4410194;28;657899;-70
2021/04/09 06:40:07;;;;;;;30.47;10.70;;;2.60;99.90;;;;;;4429290;28;658634;-70
2021/04/09 06:42:55;;;;;;;21.03;8.17;;;2.70;99.90;;;;;;4406887;28;658102;-70
2021/04/09 06:45:42;;;;;;;12.07;4.63;;;2.90;99.90;;;;;;4430113;28;656577;-68
2021/04/09 06:48:30;;;;;;;14.83;5.73;;;3.00;99.90;;;;;;4430427;28;657552;-70
2021/04/09 06:51:19;;;;;;;12.17;4.97;;;3.10;99.90;;;;;;4425382;28;656503;-68
2021/04/09 06:54:07;;;;;;;13.73;6.10;;;3.30;99.90;;;;;;4430472;28;656422;-70
2021/04/09 06:56:54;;;;;;;13.60;6.00;;;3.40;99.90;;;;;;4411585;28;657060;-70
2021/04/09 06:59:43;;;;;;;10.63;5.20;;;3.60;99.90;;;;;;4434151;28;656505;-70
2021/04/09 07:02:30;;;;;;;10.43;4.93;;;3.70;99.90;;;;;;4411276;28;657492;-70
2021/04/09 07:05:18;;;;;;;11.23;4.73;;;3.80;99.90;;;;;;4412076;28;656588;-69
2021/04/09 07:08:26;;;;;;;9.10;4.37;;;3.80;99.90;;;;;;4434651;28;656379;-70
2021/04/09 07:11:15;;;;;;;11.23;5.40;;;4.00;99.90;;;;;;4388046;28;656470;-68
2021/04/09 07:14:04;;;;;;;9.97;4.80;;;4.00;99.90;;;;;;4422648;28;656387;-68
2021/04/09 07:16:59;;;;;;;12.57;5.43;;;4.10;99.90;;;;;;4431355;28;656221;-70
2021/04/09 07:19:47;;;;;;;12.53;5.43;;;4.20;99.90;;;;;;4410811;28;656912;-70
2021/04/09 07:22:36;;;;;;;11.53;5.37;;;4.30;99.90;;;;;;4414843;28;657591;-69
2021/04/09 07:25:26;;;;;;;15.83;5.80;;;4.40;99.90;;;;;;4414778;28;656591;-69
2021/04/09 07:28:18;;;;;;;20.07;5.37;;;4.60;99.90;;;;;;4414665;28;656894;-69
2021/04/09 07:31:08;;;;;;;14.87;5.27;;;4.60;99.90;;;;;;4410976;28;657424;-69
2021/04/09 07:33:56;;;;;;;10.40;4.50;;;4.80;99.90;;;;;;4410612;28;657330;-67
2021/04/09 07:36:53;;;;;;;12.50;5.07;;;4.70;99.90;;;;;;4411245;28;656416;-69
2021/04/09 07:39:40;;;;;;;10.13;4.47;;;4.80;99.90;;;;;;4410682;28;656453;-68
2021/04/09 07:42:35;;;;;;;9.57;4.23;;;4.90;99.90;;;;;;4414263;28;657261;-66
2021/04/09 07:45:23;;;;;;;8.10;3.93;;;5.00;99.90;;;;;;4397555;28;655444;-68
2021/04/09 07:48:11;;;;;;;10.83;3.97;;;5.10;99.90;;;;;;4434719;28;656099;-68
2021/04/09 07:51:02;;;;;;;8.67;4.20;;;5.20;99.90;;;;;;4414671;28;656675;-69
2021/04/09 07:53:50;;;;;;;10.03;3.80;;;5.30;99.90;;;;;;4415677;28;656853;-67
2021/04/09 07:56:42;;;;;;;8.73;3.77;;;5.40;99.90;;;;;;4437018;28;656331;-66
2021/04/09 07:59:38;;;;;;;10.03;4.23;;;5.40;99.90;;;;;;4392427;28;656111;-68
2021/04/09 08:02:38;;;;;;;9.00;4.27;;;5.50;99.90;;;;;;4409218;28;656667;-69
2021/04/09 08:05:28;;;;;;;10.83;4.03;;;5.40;99.90;;;;;;4411018;28;656005;-67
2021/04/09 08:08:19;;;;;;;10.03;4.00;;;5.50;99.90;;;;;;4410098;28;658259;-68
2021/04/09 08:11:22;;;;;;;6.80;3.30;;;6.00;99.90;;;;;;4413531;28;656396;-69
2021/04/09 08:14:11;;;;;;;10.30;4.30;;;5.90;99.90;;;;;;4391915;28;655777;-70
2021/04/09 08:17:11;;;;;;;10.13;3.33;;;6.00;99.90;;;;;;4409511;28;656843;-68
2021/04/09 08:19:59;;;;;;;8.33;4.20;;;6.20;99.90;;;;;;4414057;28;656164;-69
2021/04/09 08:22:47;;;;;;;8.75;4.25;;;6.50;99.90;;;;;;4431851;28;655828;-69
2021/04/09 08:25:35;;;;;;;9.33;4.40;;;6.60;99.90;;;;;;4414114;28;656754;-67
2021/04/09 08:28:30;;;;;;;8.33;4.20;;;6.70;99.90;;;;;;4413954;28;655713;-68
2021/04/09 08:31:22;;;;;;;8.47;4.37;;;6.80;99.70;;;;;;4390987;28;655354;-67
2021/04/09 08:34:13;;;;;;;13.47;4.57;;;6.80;98.50;;;;;;4413975;28;655617;-69
2021/04/09 08:37:04;;;;;;;8.75;4.45;;;6.90;99.90;;;;;;4408785;28;657332;-69
2021/04/09 08:40:02;;;;;;;8.43;3.90;;;7.20;99.10;;;;;;4426008;28;655700;-67
2021/04/09 08:42:51;;;;;;;10.93;4.20;;;7.40;97.50;;;;;;4387394;28;656488;-68
2021/04/09 08:45:40;;;;;;;9.70;4.43;;;7.40;95.90;;;;;;4413297;28;656464;-68
2021/04/09 08:48:30;;;;;;;11.37;4.10;;;7.70;97.40;;;;;;4412669;28;656008;-67
2021/04/09 08:51:24;;;;;;;9.10;3.93;;;7.90;94.20;;;;;;4410413;28;656412;-68
2021/04/09 08:54:19;;;;;;;8.73;3.57;;;8.10;94.90;;;;;;4409859;28;655973;-70
2021/04/09 08:57:09;;;;;;;8.73;3.93;;;8.50;94.50;;;;;;4409723;28;655585;-68
2021/04/09 09:00:16;;;;;;;10.17;4.17;;;8.30;91.30;;;;;;4408967;28;656801;-69
2021/04/09 09:03:05;;;;;;;8.03;3.40;;;8.50;93.20;;;;;;4411979;28;656338;-66
2021/04/09 09:06:00;;;;;;;5.90;3.27;;;8.30;85.70;;;;;;4408674;28;655835;-66
2021/04/09 09:09:01;;;;;;;6.30;3.50;;;8.20;88.90;;;;;;4403122;28;655716;-68
2021/04/09 09:11:51;;;;;;;6.57;3.90;;;8.20;90.20;;;;;;4387084;28;655953;-69
2021/04/09 09:14:40;;;;;;;8.23;3.53;;;8.60;90.80;;;;;;4414522;28;655656;-69
2021/04/09 09:17:40;;;;;;;7.67;3.67;;;8.70;88.10;;;;;;4416109;28;655814;-66
2021/04/09 09:20:28;;;;;;;6.53;3.00;;;8.60;89.50;;;;;;4398238;28;655166;-69
2021/04/09 09:23:19;;;;;;;9.43;4.07;;;8.80;88.10;;;;;;4421188;28;655576;-67
2021/04/09 09:26:20;;;;;;;5.27;2.77;;;8.90;84.00;;;;;;4409720;28;656154;-69
2021/04/09 09:29:11;;;;;;;6.33;2.80;;;9.10;82.80;;;;;;4391238;28;655713;-66
2021/04/09 09:32:01;;;;;;;6.27;3.00;;;8.60;82.50;;;;;;4414131;28;655547;-66
2021/04/09 09:34:49;;;;;;;7.63;3.70;;;8.50;79.60;;;;;;4413217;28;655811;-69
2021/04/09 09:37:39;;;;;;;9.95;3.28;;;8.70;88.90;;;;;;4433016;28;655713;-68
2021/04/09 09:40:41;;;;;;;8.67;3.30;;;9.10;83.30;;;;;;4410153;28;655696;-67
2021/04/09 09:43:33;;;;;;;6.27;2.77;;;9.20;79.60;;;;;;4389098;28;655888;-69
2021/04/09 09:46:52;;;;;;;7.53;3.03;;;9.00;79.70;;;;;;4409657;28;655896;-66
2021/04/09 09:49:40;;;;;;;6.07;2.97;;;9.00;73.90;;;;;;4408808;28;655475;-65
2021/04/09 09:52:42;;;;;;;5.27;2.70;;;8.80;74.00;;;;;;4425029;28;655569;-65
2021/04/09 09:55:34;;;;;;;7.45;3.20;;;8.80;73.60;;;;;;4387075;28;656539;-66
2021/04/09 09:58:25;;;;;;;6.53;3.27;;;8.80;71.90;;;;;;4409567;28;655691;-65
2021/04/09 10:01:14;;;;;;;5.30;2.70;;;8.90;74.10;;;;;;4390766;28;656145;-65
2021/04/09 10:04:03;;;;;;;5.00;3.00;;;9.00;72.80;;;;;;4436318;28;655311;-67
2021/04/09 10:06:52;;;;;;;8.75;2.88;;;9.00;72.30;;;;;;4409465;28;656945;-66
2021/04/09 10:09:40;;;;;;;5.03;2.63;;;9.50;73.20;;;;;;4406159;28;655683;-66
2021/04/09 10:12:29;;;;;;;9.17;3.03;;;9.70;70.80;;;;;;4413418;28;655524;-65
2021/04/09 10:15:26;;;;;;;4.40;2.80;;;9.60;70.50;;;;;;4432420;28;657184;-66
2021/04/09 10:18:15;;;;;;;5.90;2.70;;;9.60;70.40;;;;;;4386716;28;655711;-65
2021/04/09 10:21:12;;;;;;;7.10;2.60;;;9.80;70.00;;;;;;4423664;28;655740;-65
2021/04/09 10:24:05;;;;;;;6.27;3.10;;;10.00;70.30;;;;;;4387050;28;655695;-65
2021/04/09 10:26:55;;;;;;;4.70;2.87;;;10.20;70.20;;;;;;4389565;28;656737;-67
2021/04/09 10:29:43;;;;;;;6.13;3.17;;;9.70;66.40;;;;;;4415431;28;656659;-65
2021/04/09 10:32:31;;;;;;;6.30;3.10;;;9.40;65.50;;;;;;4431894;28;656367;-66
2021/04/09 10:35:26;;;;;;;6.20;2.53;;;9.50;68.00;;;;;;4413326;28;655332;-65
2021/04/09 10:38:15;;;;;;;6.30;3.00;;;10.00;65.90;;;;;;4413767;28;654998;-65
2021/04/09 10:41:03;;;;;;;5.93;3.00;;;10.10;65.70;;;;;;4427187;28;656887;-68
2021/04/09 10:43:54;;;;;;;4.40;2.60;;;10.00;68.10;;;;;;4430641;28;657923;-66
2021/04/09 10:46:43;;;;;;;5.72;2.70;;;10.00;64.00;;;;;;4408083;28;657077;-66
2021/04/09 10:49:32;;;;;;;7.47;3.10;;;10.20;66.90;;;;;;4408076;28;657440;-66
2021/04/09 10:52:21;;;;;;;4.10;2.93;;;10.30;65.90;;;;;;4411866;28;656190;-65
2021/04/09 10:55:10;;;;;;;8.83;3.10;;;10.40;67.20;;;;;;4415421;28;656491;-66
2021/04/09 10:58:00;;;;;;;5.80;2.90;;;10.60;68.60;;;;;;4415671;28;656726;-66
2021/04/09 11:00:50;;;;;;;6.87;3.13;;;11.00;65.30;;;;;;4425962;28;656579;-65
2021/04/09 11:03:38;;;;;;;6.67;2.87;;;11.20;67.00;;;;;;4419395;28;656608;-67
2021/04/09 11:06:25;;;;;;;8.50;3.57;;;10.80;64.80;;;;;;4434018;28;657468;-69
2021/04/09 11:09:14;;;;;;;7.07;2.90;;;10.80;67.00;;;;;;4416085;28;656850;-69
2021/04/09 11:12:02;;;;;;;10.30;3.33;;;10.90;62.80;;;;;;4433451;28;656824;-66
2021/04/09 11:14:51;;;;;;;12.40;3.53;;;10.80;62.40;;;;;;4413927;28;659069;-66
2021/04/09 11:17:40;;;;;;;6.40;3.07;;;10.60;63.80;;;;;;4410730;28;657914;-66
2021/04/09 11:20:29;;;;;;;10.13;3.90;;;10.50;64.20;;;;;;4421397;28;656688;-66
2021/04/09 11:23:19;;;;;;;6.67;3.33;;;10.60;64.70;;;;;;4436737;28;657257;-65
2021/04/09 11:26:19;;;;;;;6.13;3.40;;;11.00;63.60;;;;;;4410978;28;656969;-66
2021/04/09 11:29:08;;;;;;;5.67;3.23;;;11.60;64.70;;;;;;4411377;28;657042;-66
2021/04/09 11:32:14;;;;;;;7.27;3.07;;;12.20;64.20;;;;;;4410277;28;657649;-68
2021/04/09 11:35:10;;;;;;;6.47;3.47;;;12.10;61.70;;;;;;4411020;28;656897;-69
2021/04/09 11:37:59;;;;;;;6.70;3.20;;;12.20;60.60;;;;;;4392673;28;656227;-67
2021/04/09 11:40:48;;;;;;;5.03;3.30;;;12.50;60.50;;;;;;4433315;28;656361;-67
2021/04/09 11:43:39;;;;;;;8.20;3.20;;;11.70;59.60;;;;;;4408722;28;657861;-66
2021/04/09 11:46:33;;;;;;;6.23;3.60;;;11.50;61.80;;;;;;4410972;28;656461;-69
2021/04/09 11:49:29;;;;;;;7.13;3.50;;;11.70;64.40;;;;;;4410509;28;656560;-67
2021/04/09 11:52:19;;;;;;;8.83;3.80;;;11.60;61.20;;;;;;4409982;28;656608;-70
2021/04/09 11:55:15;;;;;;;6.27;3.20;;;11.70;62.90;;;;;;4410879;28;656397;-69
2021/04/09 11:58:03;;;;;;;7.37;4.20;;;12.00;60.70;;;;;;4403806;28;656503;-68
2021/04/09 12:01:00;;;;;;;6.70;3.80;;;11.70;60.70;;;;;;4432883;28;657220;-67
2021/04/09 12:03:49;;;;;;;8.83;3.70;;;11.60;60.30;;;;;;4400925;28;656220;-66
2021/04/09 12:06:37;;;;;;;8.63;3.77;;;11.60;59.80;;;;;;4432873;28;656371;-65
2021/04/09 12:09:26;;;;;;;6.77;3.50;;;11.50;61.20;;;;;;4414196;28;657483;-65
2021/04/09 12:12:15;;;;;;;7.17;3.13;;;11.70;61.00;;;;;;4413855;28;656851;-66
2021/04/09 12:15:04;;;;;;;5.30;3.27;;;11.30;59.60;;;;;;4422451;28;656700;-65
2021/04/09 12:17:54;;;;;;;6.23;3.20;;;11.20;62.10;;;;;;4433126;28;656601;-66
2021/04/09 12:20:41;;;;;;;5.03;3.13;;;11.50;64.00;;;;;;4407131;28;657086;-65
2021/04/09 12:23:29;;;;;;;5.97;2.80;;;11.40;61.60;;;;;;4414246;28;656652;-65
2021/04/09 12:26:17;;;;;;;7.77;3.60;;;11.10;60.10;;;;;;4433117;28;656830;-68
2021/04/09 12:29:06;;;;;;;7.07;3.07;;;10.90;59.20;;;;;;4411894;28;656999;-67
2021/04/09 12:31:55;;;;;;;6.73;3.03;;;10.90;61.00;;;;;;4414468;28;656724;-66
2021/04/09 12:34:47;;;;;;;5.33;3.23;;;11.00;59.10;;;;;;4415913;28;656915;-65
2021/04/09 12:37:35;;;;;;;6.50;3.27;;;11.00;61.30;;;;;;4414117;28;656791;-65
2021/04/09 12:40:24;;;;;;;4.73;2.50;;;11.50;63.60;;;;;;4413241;28;656900;-65
2021/04/09 12:43:12;;;;;;;5.43;3.10;;;11.80;60.50;;;;;;4432315;28;657662;-66
2021/04/09 12:46:01;;;;;;;6.97;3.13;;;11.70;57.60;;;;;;4413666;28;657263;-67
2021/04/09 12:48:49;;;;;;;6.67;3.00;;;11.50;58.50;;;;;;4412637;28;656549;-69
2021/04/09 12:51:38;;;;;;;6.03;2.97;;;11.50;59.30;;;;;;4432384;28;656954;-70
2021/04/09 12:54:26;;;;;;;6.27;2.60;;;11.30;57.00;;;;;;4409747;28;656900;-66
2021/04/09 12:57:15;;;;;;;4.97;2.83;;;11.40;57.30;;;;;;4413916;28;656836;-69
2021/04/09 13:00:05;;;;;;;4.67;2.70;;;11.40;57.20;;;;;;4417520;28;656918;-65
2021/04/09 13:02:53;;;;;;;4.60;3.00;;;11.40;57.80;;;;;;4413483;28;656515;-66
2021/04/09 13:05:40;;;;;;;4.63;2.63;;;11.90;59.70;;;;;;4431913;28;657834;-66
2021/04/09 13:08:30;;;;;;;6.23;2.80;;;12.10;56.90;;;;;;4413259;28;656524;-65
2021/04/09 13:11:19;;;;;;;8.07;3.23;;;12.10;56.50;;;;;;4413188;28;656572;-66
2021/04/09 13:14:07;;;;;;;5.80;3.00;;;11.80;56.10;;;;;;4432113;28;656622;-68
2021/04/09 13:16:56;;;;;;;6.70;2.90;;;11.90;57.40;;;;;;4412766;28;657428;-66
2021/04/09 13:19:44;;;;;;;5.57;2.90;;;12.30;58.00;;;;;;4413146;28;656739;-69
2021/04/09 13:22:32;;;;;;;7.57;2.90;;;12.40;57.30;;;;;;4432125;28;656479;-69
2021/04/09 13:25:22;;;;;;;6.33;3.30;;;12.60;57.80;;;;;;4413100;28;657289;-66
2021/04/09 13:28:10;;;;;;;8.87;3.47;;;12.30;55.60;;;;;;4412956;28;656486;-69
2021/04/09 13:30:59;;;;;;;8.43;3.50;;;12.50;58.40;;;;;;4431592;28;657082;-69
2021/04/09 13:33:47;;;;;;;5.17;3.03;;;12.80;58.00;;;;;;4431251;28;656604;-68
2021/04/09 13:36:35;;;;;;;6.47;3.57;;;12.60;58.60;;;;;;4408916;28;657098;-69
2021/04/09 13:39:23;;;;;;;7.40;3.50;;;12.90;59.30;;;;;;4424596;28;656580;-67
2021/04/09 13:42:13;;;;;;;8.17;4.00;;;12.80;57.20;;;;;;4435179;28;657301;-69
2021/04/09 13:45:04;;;;;;;5.00;3.30;;;13.00;58.60;;;;;;4408781;28;657175;-69
2021/04/09 13:47:51;;;;;;;6.80;3.60;;;13.20;58.10;;;;;;4408453;28;656855;-68
2021/04/09 13:50:39;;;;;;;5.77;3.20;;;13.20;56.40;;;;;;4412577;28;656527;-68
2021/04/09 13:53:28;;;;;;;5.67;3.63;;;13.30;58.00;;;;;;4435046;28;656181;-67
2021/04/09 13:56:16;;;;;;;5.20;3.10;;;13.60;59.60;;;;;;4408692;28;657136;-67
2021/04/09 13:59:06;;;;;;;6.60;3.13;;;14.00;55.20;;;;;;4408534;28;657009;-69
2021/04/09 14:01:55;;;;;;;6.03;3.13;;;14.10;53.90;;;;;;4412239;28;656667;-68
2021/04/09 14:04:45;;;;;;;5.37;2.77;;;13.90;54.60;;;;;;4421464;28;656498;-69
2021/04/09 14:07:33;;;;;;;5.50;3.00;;;13.70;55.50;;;;;;4412345;28;656754;-68
2021/04/09 14:10:21;;;;;;;6.43;2.93;;;14.10;56.50;;;;;;4430731;28;657392;-67
2021/04/09 14:13:11;;;;;;;4.27;3.10;;;13.90;52.10;;;;;;4412250;28;656989;-68
2021/04/09 14:16:00;;;;;;;6.47;3.23;;;13.70;54.10;;;;;;4411049;28;656449;-69
2021/04/09 14:18:51;;;;;;;5.30;3.10;;;13.70;54.40;;;;;;4422271;28;656454;-69
2021/04/09 14:21:41;;;;;;;6.27;2.77;;;13.60;55.90;;;;;;4412182;28;656444;-69
2021/04/09 14:24:29;;;;;;;7.90;3.40;;;13.80;55.00;;;;;;4407747;28;657224;-68